Bon Air, Alabama
Current Conditions -  °F | °C
As of 7:15 AM on Thursday 18 Dec 2014 (Local Time) from KSCD Reporting Station
Clear Clear  
Wind Chill: 35°   Ceiling: Unl
Heat Index: 35°   Visibility: 10mi
Dew Point: 35°   Wind: 3mph
Humidity: 98%   Direction: 50°NE
Pressure: 30.23"   Gusts: NA
Location:  33.26°N, 86.34°W
Report Text: KSCD 181315Z AUTO 05003KT 10SM CLR 02/02 A3023 RMK AO2 T00180015
Loading
Personal Weather Stations






























Interactive Weather Map New forecast layout! Learn more

10-Day Weather Forecast

Advertisements
Track Severe Weather on mobile